sensor_id;sensor_type;location;lat;lon;timestamp;P1;durP1;ratioP1;P2;durP2;ratioP2
58756;SDS011;44527;47.460;19.016;2024-01-30T00:01:16;44.17;;;18.95;;
58756;SDS011;44527;47.460;19.016;2024-01-30T00:04:19;50.67;;;19.60;;
58756;SDS011;44527;47.460;19.016;2024-01-30T00:07:21;50.63;;;18.33;;
58756;SDS011;44527;47.460;19.016;2024-01-30T00:10:24;52.92;;;18.27;;
58756;SDS011;44527;47.460;19.016;2024-01-30T00:13:27;44.13;;;18.02;;
58756;SDS011;44527;47.460;19.016;2024-01-30T00:16:29;49.65;;;18.95;;
58756;SDS011;44527;47.460;19.016;2024-01-30T00:19:32;49.65;;;20.27;;
58756;SDS011;44527;47.460;19.016;2024-01-30T00:22:34;44.33;;;18.30;;
58756;SDS011;44527;47.460;19.016;2024-01-30T00:25:37;44.38;;;18.55;;
58756;SDS011;44527;47.460;19.016;2024-01-30T00:28:39;57.95;;;18.83;;
58756;SDS011;44527;47.460;19.016;2024-01-30T00:31:42;47.30;;;18.05;;
58756;SDS011;44527;47.460;19.016;2024-01-30T00:34:45;38.38;;;18.12;;
58756;SDS011;44527;47.460;19.016;2024-01-30T00:37:47;47.10;;;18.23;;
58756;SDS011;44527;47.460;19.016;2024-01-30T00:40:50;41.67;;;17.45;;
58756;SDS011;44527;47.460;19.016;2024-01-30T00:43:52;41.10;;;16.15;;
58756;SDS011;44527;47.460;19.016;2024-01-30T00:46:55;51.97;;;17.05;;
58756;SDS011;44527;47.460;19.016;2024-01-30T00:49:57;38.58;;;17.10;;
58756;SDS011;44527;47.460;19.016;2024-01-30T00:53:00;47.53;;;17.15;;
58756;SDS011;44527;47.460;19.016;2024-01-30T00:56:02;37.42;;;17.60;;
58756;SDS011;44527;47.460;19.016;2024-01-30T00:59:05;44.75;;;18.17;;
58756;SDS011;44527;47.460;19.016;2024-01-30T01:02:08;38.63;;;17.95;;
58756;SDS011;44527;47.460;19.016;2024-01-30T01:05:10;43.85;;;19.05;;
58756;SDS011;44527;47.460;19.016;2024-01-30T01:08:13;45.25;;;18.60;;
58756;SDS011;44527;47.460;19.016;2024-01-30T01:11:17;46.08;;;18.27;;
58756;SDS011;44527;47.460;19.016;2024-01-30T01:14:20;38.05;;;17.60;;
58756;SDS011;44527;47.460;19.016;2024-01-30T01:17:22;42.35;;;18.80;;
58756;SDS011;44527;47.460;19.016;2024-01-30T01:20:25;48.63;;;19.33;;
58756;SDS011;44527;47.460;19.016;2024-01-30T01:23:27;37.15;;;17.58;;
58756;SDS011;44527;47.460;19.016;2024-01-30T01:26:30;45.00;;;17.77;;
58756;SDS011;44527;47.460;19.016;2024-01-30T01:29:33;43.08;;;17.00;;
58756;SDS011;44527;47.460;19.016;2024-01-30T01:32:35;43.63;;;16.80;;
58756;SDS011;44527;47.460;19.016;2024-01-30T01:35:38;37.65;;;15.82;;
58756;SDS011;44527;47.460;19.016;2024-01-30T01:38:41;42.03;;;18.15;;
58756;SDS011;44527;47.460;19.016;2024-01-30T01:41:45;41.13;;;16.30;;
58756;SDS011;44527;47.460;19.016;2024-01-30T01:44:48;53.85;;;18.48;;
58756;SDS011;44527;47.460;19.016;2024-01-30T01:47:51;39.95;;;16.83;;
58756;SDS011;44527;47.460;19.016;2024-01-30T01:50:54;38.75;;;16.90;;
58756;SDS011;44527;47.460;19.016;2024-01-30T01:53:57;41.65;;;15.50;;
58756;SDS011;44527;47.460;19.016;2024-01-30T01:57:03;35.38;;;15.80;;
58756;SDS011;44527;47.460;19.016;2024-01-30T02:00:06;31.15;;;14.10;;
58756;SDS011;44527;47.460;19.016;2024-01-30T02:03:12;34.03;;;15.45;;
58756;SDS011;44527;47.460;19.016;2024-01-30T02:06:16;47.60;;;16.25;;
58756;SDS011;44527;47.460;19.016;2024-01-30T02:09:19;39.67;;;16.67;;
58756;SDS011;44527;47.460;19.016;2024-01-30T02:12:22;39.33;;;15.27;;
58756;SDS011;44527;47.460;19.016;2024-01-30T02:15:24;42.22;;;17.83;;
58756;SDS011;44527;47.460;19.016;2024-01-30T02:18:27;44.35;;;17.25;;
58756;SDS011;44527;47.460;19.016;2024-01-30T02:21:29;34.83;;;15.02;;
58756;SDS011;44527;47.460;19.016;2024-01-30T02:24:32;40.67;;;16.92;;
58756;SDS011;44527;47.460;19.016;2024-01-30T02:27:34;47.75;;;16.60;;
58756;SDS011;44527;47.460;19.016;2024-01-30T02:30:37;41.53;;;16.65;;
58756;SDS011;44527;47.460;19.016;2024-01-30T02:33:40;45.40;;;16.58;;
58756;SDS011;44527;47.460;19.016;2024-01-30T02:36:42;38.38;;;16.10;;
58756;SDS011;44527;47.460;19.016;2024-01-30T02:39:46;38.03;;;16.65;;
58756;SDS011;44527;47.460;19.016;2024-01-30T02:42:48;35.05;;;16.33;;
58756;SDS011;44527;47.460;19.016;2024-01-30T02:45:51;47.62;;;16.55;;
58756;SDS011;44527;47.460;19.016;2024-01-30T02:48:53;39.53;;;15.20;;
58756;SDS011;44527;47.460;19.016;2024-01-30T02:51:56;30.95;;;14.50;;
58756;SDS011;44527;47.460;19.016;2024-01-30T02:54:59;34.25;;;16.98;;
58756;SDS011;44527;47.460;19.016;2024-01-30T02:58:01;35.88;;;16.48;;
58756;SDS011;44527;47.460;19.016;2024-01-30T03:01:04;32.42;;;14.93;;
58756;SDS011;44527;47.460;19.016;2024-01-30T03:04:06;39.22;;;16.60;;
58756;SDS011;44527;47.460;19.016;2024-01-30T03:07:09;39.45;;;16.75;;
58756;SDS011;44527;47.460;19.016;2024-01-30T03:10:12;36.58;;;15.77;;
58756;SDS011;44527;47.460;19.016;2024-01-30T03:13:14;33.67;;;15.20;;
58756;SDS011;44527;47.460;19.016;2024-01-30T03:16:17;43.42;;;15.32;;
58756;SDS011;44527;47.460;19.016;2024-01-30T03:19:19;40.42;;;16.02;;
58756;SDS011;44527;47.460;19.016;2024-01-30T03:22:22;41.63;;;16.35;;
58756;SDS011;44527;47.460;19.016;2024-01-30T03:25:24;41.20;;;15.55;;
58756;SDS011;44527;47.460;19.016;2024-01-30T03:28:27;40.22;;;16.17;;
58756;SDS011;44527;47.460;19.016;2024-01-30T03:31:30;38.70;;;16.42;;
58756;SDS011;44527;47.460;19.016;2024-01-30T03:34:33;32.38;;;14.68;;
58756;SDS011;44527;47.460;19.016;2024-01-30T03:37:35;34.17;;;16.00;;
58756;SDS011;44527;47.460;19.016;2024-01-30T03:40:38;36.75;;;15.60;;
58756;SDS011;44527;47.460;19.016;2024-01-30T03:43:40;33.83;;;14.27;;
58756;SDS011;44527;47.460;19.016;2024-01-30T03:46:44;31.02;;;14.48;;
58756;SDS011;44527;47.460;19.016;2024-01-30T03:49:46;30.30;;;14.48;;
58756;SDS011;44527;47.460;19.016;2024-01-30T03:52:49;43.47;;;15.75;;
58756;SDS011;44527;47.460;19.016;2024-01-30T03:55:51;35.85;;;15.82;;
58756;SDS011;44527;47.460;19.016;2024-01-30T03:58:54;43.20;;;14.90;;
58756;SDS011;44527;47.460;19.016;2024-01-30T04:01:57;39.40;;;16.73;;
58756;SDS011;44527;47.460;19.016;2024-01-30T04:05:00;40.90;;;14.75;;
58756;SDS011;44527;47.460;19.016;2024-01-30T04:08:02;34.67;;;15.25;;
58756;SDS011;44527;47.460;19.016;2024-01-30T04:11:05;38.00;;;14.93;;
58756;SDS011;44527;47.460;19.016;2024-01-30T04:14:08;25.60;;;12.90;;
58756;SDS011;44527;47.460;19.016;2024-01-30T04:17:11;30.65;;;13.00;;
58756;SDS011;44527;47.460;19.016;2024-01-30T04:20:14;36.92;;;14.57;;
58756;SDS011;44527;47.460;19.016;2024-01-30T04:23:18;31.87;;;14.25;;
58756;SDS011;44527;47.460;19.016;2024-01-30T04:26:23;34.63;;;13.48;;
58756;SDS011;44527;47.460;19.016;2024-01-30T04:29:26;37.90;;;15.27;;
58756;SDS011;44527;47.460;19.016;2024-01-30T04:32:28;28.42;;;14.38;;
58756;SDS011;44527;47.460;19.016;2024-01-30T04:35:31;35.38;;;14.82;;
58756;SDS011;44527;47.460;19.016;2024-01-30T04:38:34;37.45;;;14.27;;
58756;SDS011;44527;47.460;19.016;2024-01-30T04:41:36;37.50;;;15.15;;
58756;SDS011;44527;47.460;19.016;2024-01-30T04:44:38;35.53;;;14.82;;
58756;SDS011;44527;47.460;19.016;2024-01-30T04:47:41;36.13;;;15.35;;
58756;SDS011;44527;47.460;19.016;2024-01-30T04:50:43;35.03;;;14.57;;
58756;SDS011;44527;47.460;19.016;2024-01-30T04:53:46;31.75;;;13.40;;
58756;SDS011;44527;47.460;19.016;2024-01-30T04:56:49;39.15;;;15.07;;
58756;SDS011;44527;47.460;19.016;2024-01-30T04:59:52;39.97;;;13.82;;
58756;SDS011;44527;47.460;19.016;2024-01-30T05:02:57;28.73;;;12.68;;
58756;SDS011;44527;47.460;19.016;2024-01-30T05:06:00;36.83;;;14.15;;
58756;SDS011;44527;47.460;19.016;2024-01-30T05:09:02;37.80;;;14.45;;
58756;SDS011;44527;47.460;19.016;2024-01-30T05:12:08;32.42;;;13.52;;
58756;SDS011;44527;47.460;19.016;2024-01-30T05:15:10;32.53;;;13.93;;
58756;SDS011;44527;47.460;19.016;2024-01-30T05:18:13;27.80;;;13.00;;
58756;SDS011;44527;47.460;19.016;2024-01-30T05:21:16;32.00;;;13.55;;
58756;SDS011;44527;47.460;19.016;2024-01-30T05:24:18;34.13;;;15.10;;
58756;SDS011;44527;47.460;19.016;2024-01-30T05:27:22;41.70;;;15.65;;
58756;SDS011;44527;47.460;19.016;2024-01-30T05:30:25;33.47;;;13.40;;
58756;SDS011;44527;47.460;19.016;2024-01-30T05:33:27;34.50;;;14.93;;
58756;SDS011;44527;47.460;19.016;2024-01-30T05:36:30;33.97;;;15.20;;
58756;SDS011;44527;47.460;19.016;2024-01-30T05:39:32;40.88;;;15.50;;
58756;SDS011;44527;47.460;19.016;2024-01-30T05:42:35;40.85;;;14.68;;
58756;SDS011;44527;47.460;19.016;2024-01-30T05:45:38;37.15;;;15.60;;
58756;SDS011;44527;47.460;19.016;2024-01-30T05:48:40;40.42;;;16.23;;
58756;SDS011;44527;47.460;19.016;2024-01-30T05:51:43;33.35;;;16.25;;
58756;SDS011;44527;47.460;19.016;2024-01-30T05:54:45;41.72;;;15.63;;
58756;SDS011;44527;47.460;19.016;2024-01-30T05:57:48;40.95;;;15.98;;
58756;SDS011;44527;47.460;19.016;2024-01-30T06:00:51;32.97;;;15.80;;
58756;SDS011;44527;47.460;19.016;2024-01-30T06:03:54;30.80;;;14.55;;
58756;SDS011;44527;47.460;19.016;2024-01-30T06:06:57;37.95;;;17.25;;
58756;SDS011;44527;47.460;19.016;2024-01-30T06:10:00;34.55;;;14.38;;
58756;SDS011;44527;47.460;19.016;2024-01-30T06:13:04;38.58;;;14.55;;
58756;SDS011;44527;47.460;19.016;2024-01-30T06:16:09;37.70;;;15.85;;
58756;SDS011;44527;47.460;19.016;2024-01-30T06:19:13;40.78;;;14.43;;
58756;SDS011;44527;47.460;19.016;2024-01-30T06:22:16;30.60;;;15.05;;
58756;SDS011;44527;47.460;19.016;2024-01-30T06:25:19;33.50;;;14.77;;
58756;SDS011;44527;47.460;19.016;2024-01-30T06:28:22;31.27;;;13.40;;
58756;SDS011;44527;47.460;19.016;2024-01-30T06:31:25;32.53;;;14.48;;
58756;SDS011;44527;47.460;19.016;2024-01-30T06:34:29;35.95;;;14.52;;
58756;SDS011;44527;47.460;19.016;2024-01-30T06:37:31;35.70;;;13.98;;
58756;SDS011;44527;47.460;19.016;2024-01-30T06:40:34;30.33;;;13.02;;
58756;SDS011;44527;47.460;19.016;2024-01-30T06:43:38;35.83;;;13.75;;
58756;SDS011;44527;47.460;19.016;2024-01-30T06:46:42;35.53;;;14.55;;
58756;SDS011;44527;47.460;19.016;2024-01-30T06:49:47;32.35;;;12.75;;
58756;SDS011;44527;47.460;19.016;2024-01-30T06:52:55;33.83;;;14.95;;
58756;SDS011;44527;47.460;19.016;2024-01-30T06:56:04;32.42;;;12.77;;
58756;SDS011;44527;47.460;19.016;2024-01-30T06:59:09;31.87;;;14.07;;
58756;SDS011;44527;47.460;19.016;2024-01-30T07:02:11;39.72;;;14.27;;
58756;SDS011;44527;47.460;19.016;2024-01-30T07:05:15;34.35;;;14.52;;
58756;SDS011;44527;47.460;19.016;2024-01-30T07:08:28;38.65;;;14.48;;
58756;SDS011;44527;47.460;19.016;2024-01-30T07:11:49;32.25;;;14.23;;
58756;SDS011;44527;47.460;19.016;2024-01-30T07:14:53;33.72;;;14.75;;
58756;SDS011;44527;47.460;19.016;2024-01-30T07:18:03;30.40;;;13.20;;
58756;SDS011;44527;47.460;19.016;2024-01-30T07:21:07;30.17;;;12.75;;
58756;SDS011;44527;47.460;19.016;2024-01-30T07:24:10;35.85;;;15.30;;
58756;SDS011;44527;47.460;19.016;2024-01-30T07:27:14;41.67;;;15.70;;
58756;SDS011;44527;47.460;19.016;2024-01-30T07:30:16;33.15;;;15.77;;
58756;SDS011;44527;47.460;19.016;2024-01-30T07:33:24;37.88;;;15.93;;
58756;SDS011;44527;47.460;19.016;2024-01-30T07:36:30;37.08;;;15.73;;
58756;SDS011;44527;47.460;19.016;2024-01-30T07:39:33;34.22;;;15.75;;
58756;SDS011;44527;47.460;19.016;2024-01-30T07:42:35;42.45;;;16.70;;
58756;SDS011;44527;47.460;19.016;2024-01-30T07:45:38;48.03;;;16.55;;
58756;SDS011;44527;47.460;19.016;2024-01-30T07:48:41;40.80;;;15.73;;
58756;SDS011;44527;47.460;19.016;2024-01-30T07:51:43;36.65;;;15.98;;
58756;SDS011;44527;47.460;19.016;2024-01-30T07:54:47;31.75;;;16.00;;
58756;SDS011;44527;47.460;19.016;2024-01-30T07:57:51;38.35;;;17.15;;
58756;SDS011;44527;47.460;19.016;2024-01-30T08:00:54;33.20;;;17.73;;
58756;SDS011;44527;47.460;19.016;2024-01-30T08:04:01;39.63;;;15.93;;
58756;SDS011;44527;47.460;19.016;2024-01-30T08:07:04;42.40;;;16.62;;
58756;SDS011;44527;47.460;19.016;2024-01-30T08:10:07;38.97;;;17.20;;
58756;SDS011;44527;47.460;19.016;2024-01-30T08:13:11;35.72;;;17.45;;
58756;SDS011;44527;47.460;19.016;2024-01-30T08:16:13;38.05;;;18.05;;
58756;SDS011;44527;47.460;19.016;2024-01-30T08:19:16;47.35;;;22.15;;
58756;SDS011;44527;47.460;19.016;2024-01-30T08:22:19;65.80;;;22.75;;
58756;SDS011;44527;47.460;19.016;2024-01-30T08:25:23;51.42;;;22.13;;
58756;SDS011;44527;47.460;19.016;2024-01-30T08:28:36;51.50;;;22.83;;
58756;SDS011;44527;47.460;19.016;2024-01-30T08:31:40;59.58;;;22.55;;
58756;SDS011;44527;47.460;19.016;2024-01-30T08:34:42;42.05;;;19.02;;
58756;SDS011;44527;47.460;19.016;2024-01-30T08:37:45;42.85;;;19.23;;
58756;SDS011;44527;47.460;19.016;2024-01-30T08:40:48;34.85;;;16.52;;
58756;SDS011;44527;47.460;19.016;2024-01-30T08:43:52;33.58;;;14.60;;
58756;SDS011;44527;47.460;19.016;2024-01-30T08:46:55;33.70;;;14.73;;
58756;SDS011;44527;47.460;19.016;2024-01-30T08:50:12;32.85;;;13.88;;
58756;SDS011;44527;47.460;19.016;2024-01-30T08:53:15;31.62;;;14.55;;
58756;SDS011;44527;47.460;19.016;2024-01-30T08:56:18;33.17;;;14.45;;
58756;SDS011;44527;47.460;19.016;2024-01-30T08:59:22;30.98;;;13.80;;
58756;SDS011;44527;47.460;19.016;2024-01-30T09:02:37;32.53;;;15.48;;
58756;SDS011;44527;47.460;19.016;2024-01-30T09:05:39;35.25;;;16.60;;
58756;SDS011;44527;47.460;19.016;2024-01-30T09:08:42;36.22;;;15.73;;
58756;SDS011;44527;47.460;19.016;2024-01-30T09:11:46;36.75;;;15.50;;
58756;SDS011;44527;47.460;19.016;2024-01-30T09:14:48;39.38;;;15.38;;
58756;SDS011;44527;47.460;19.016;2024-01-30T09:17:51;32.70;;;15.38;;
58756;SDS011;44527;47.460;19.016;2024-01-30T09:20:54;37.80;;;17.23;;
58756;SDS011;44527;47.460;19.016;2024-01-30T10:18:41;32.22;;;14.52;;
58756;SDS011;44527;47.460;19.016;2024-01-30T10:21:46;30.48;;;15.85;;
58756;SDS011;44527;47.460;19.016;2024-01-30T10:24:49;33.22;;;16.40;;
58756;SDS011;44527;47.460;19.016;2024-01-30T10:27:53;36.63;;;16.50;;
58756;SDS011;44527;47.460;19.016;2024-01-30T10:31:25;40.70;;;19.10;;
58756;SDS011;44527;47.460;19.016;2024-01-30T10:35:08;37.40;;;17.40;;
58756;SDS011;44527;47.460;19.016;2024-01-30T11:00:14;39.88;;;16.50;;
58756;SDS011;44527;47.460;19.016;2024-01-30T11:03:18;33.85;;;16.65;;
58756;SDS011;44527;47.460;19.016;2024-01-30T11:06:24;30.10;;;15.63;;
58756;SDS011;44527;47.460;19.016;2024-01-30T11:09:28;32.75;;;16.27;;
58756;SDS011;44527;47.460;19.016;2024-01-30T11:12:32;33.40;;;15.75;;
58756;SDS011;44527;47.460;19.016;2024-01-30T11:15:37;36.30;;;15.52;;
58756;SDS011;44527;47.460;19.016;2024-01-30T11:18:40;29.50;;;14.80;;
58756;SDS011;44527;47.460;19.016;2024-01-30T11:21:42;38.78;;;16.58;;
58756;SDS011;44527;47.460;19.016;2024-01-30T11:24:46;33.08;;;15.52;;
58756;SDS011;44527;47.460;19.016;2024-01-30T11:27:49;28.95;;;13.98;;
58756;SDS011;44527;47.460;19.016;2024-01-30T11:31:02;32.45;;;15.07;;
58756;SDS011;44527;47.460;19.016;2024-01-30T11:34:14;30.60;;;14.48;;
58756;SDS011;44527;47.460;19.016;2024-01-30T11:37:22;27.00;;;13.10;;
58756;SDS011;44527;47.460;19.016;2024-01-30T11:40:29;30.67;;;14.18;;
58756;SDS011;44527;47.460;19.016;2024-01-30T11:43:34;23.58;;;12.77;;
58756;SDS011;44527;47.460;19.016;2024-01-30T11:46:37;27.83;;;13.75;;
58756;SDS011;44527;47.460;19.016;2024-01-30T11:49:42;32.65;;;14.32;;
58756;SDS011;44527;47.460;19.016;2024-01-30T11:52:48;26.40;;;14.52;;
58756;SDS011;44527;47.460;19.016;2024-01-30T11:55:54;33.75;;;14.85;;
58756;SDS011;44527;47.460;19.016;2024-01-30T11:58:57;30.73;;;13.45;;
58756;SDS011;44527;47.460;19.016;2024-01-30T12:02:02;28.02;;;13.25;;
58756;SDS011;44527;47.460;19.016;2024-01-30T12:05:06;31.65;;;14.32;;
58756;SDS011;44527;47.460;19.016;2024-01-30T12:08:14;24.08;;;11.73;;
58756;SDS011;44527;47.460;19.016;2024-01-30T12:11:18;30.70;;;11.80;;
58756;SDS011;44527;47.460;19.016;2024-01-30T12:14:20;22.35;;;11.98;;
58756;SDS011;44527;47.460;19.016;2024-01-30T12:17:29;24.87;;;11.77;;
58756;SDS011;44527;47.460;19.016;2024-01-30T12:20:33;23.13;;;11.67;;
58756;SDS011;44527;47.460;19.016;2024-01-30T12:23:36;25.05;;;11.98;;
58756;SDS011;44527;47.460;19.016;2024-01-30T12:26:39;20.98;;;11.07;;
58756;SDS011;44527;47.460;19.016;2024-01-30T12:29:42;28.23;;;11.98;;
58756;SDS011;44527;47.460;19.016;2024-01-30T12:32:46;23.42;;;11.80;;
58756;SDS011;44527;47.460;19.016;2024-01-30T12:36:03;18.10;;;9.15;;
58756;SDS011;44527;47.460;19.016;2024-01-30T12:39:10;17.05;;;9.13;;
58756;SDS011;44527;47.460;19.016;2024-01-30T12:42:22;20.00;;;8.77;;
58756;SDS011;44527;47.460;19.016;2024-01-30T12:45:26;19.80;;;8.98;;
58756;SDS011;44527;47.460;19.016;2024-01-30T12:48:29;19.50;;;9.30;;
58756;SDS011;44527;47.460;19.016;2024-01-30T12:51:34;19.52;;;8.75;;
58756;SDS011;44527;47.460;19.016;2024-01-30T12:54:38;18.40;;;7.80;;
58756;SDS011;44527;47.460;19.016;2024-01-30T12:57:41;18.45;;;8.75;;
58756;SDS011;44527;47.460;19.016;2024-01-30T13:00:45;16.17;;;8.75;;
58756;SDS011;44527;47.460;19.016;2024-01-30T13:03:49;18.45;;;8.40;;
58756;SDS011;44527;47.460;19.016;2024-01-30T13:06:52;13.75;;;7.28;;
58756;SDS011;44527;47.460;19.016;2024-01-30T13:09:55;16.83;;;7.75;;
58756;SDS011;44527;47.460;19.016;2024-01-30T13:12:58;21.33;;;8.02;;
58756;SDS011;44527;47.460;19.016;2024-01-30T13:16:00;16.17;;;8.23;;
58756;SDS011;44527;47.460;19.016;2024-01-30T13:19:03;19.62;;;7.60;;
58756;SDS011;44527;47.460;19.016;2024-01-30T13:22:06;13.55;;;7.45;;
58756;SDS011;44527;47.460;19.016;2024-01-30T13:25:15;14.20;;;7.43;;
58756;SDS011;44527;47.460;19.016;2024-01-30T13:28:26;14.70;;;8.02;;
58756;SDS011;44527;47.460;19.016;2024-01-30T13:31:33;15.85;;;6.97;;
58756;SDS011;44527;47.460;19.016;2024-01-30T13:34:37;9.70;;;5.65;;
58756;SDS011;44527;47.460;19.016;2024-01-30T13:37:43;14.45;;;6.57;;
58756;SDS011;44527;47.460;19.016;2024-01-30T13:40:46;11.35;;;6.35;;
58756;SDS011;44527;47.460;19.016;2024-01-30T13:43:49;12.70;;;7.25;;
58756;SDS011;44527;47.460;19.016;2024-01-30T13:46:52;12.23;;;6.22;;
58756;SDS011;44527;47.460;19.016;2024-01-30T13:49:57;12.88;;;6.32;;
58756;SDS011;44527;47.460;19.016;2024-01-30T13:52:59;17.67;;;8.50;;
58756;SDS011;44527;47.460;19.016;2024-01-30T13:56:03;17.33;;;8.32;;
58756;SDS011;44527;47.460;19.016;2024-01-30T13:59:05;14.48;;;7.72;;
58756;SDS011;44527;47.460;19.016;2024-01-30T14:02:09;18.87;;;8.63;;
58756;SDS011;44527;47.460;19.016;2024-01-30T14:05:12;13.60;;;7.05;;
58756;SDS011;44527;47.460;19.016;2024-01-30T14:08:17;15.18;;;7.97;;
58756;SDS011;44527;47.460;19.016;2024-01-30T14:11:20;20.80;;;8.13;;
58756;SDS011;44527;47.460;19.016;2024-01-30T14:14:23;16.48;;;8.77;;
58756;SDS011;44527;47.460;19.016;2024-01-30T14:17:25;19.65;;;8.23;;
58756;SDS011;44527;47.460;19.016;2024-01-30T14:20:28;19.17;;;9.30;;
58756;SDS011;44527;47.460;19.016;2024-01-30T14:23:31;19.90;;;8.15;;
58756;SDS011;44527;47.460;19.016;2024-01-30T14:26:33;21.00;;;7.97;;
58756;SDS011;44527;47.460;19.016;2024-01-30T14:29:36;14.87;;;7.80;;
58756;SDS011;44527;47.460;19.016;2024-01-30T14:32:39;14.73;;;7.80;;
58756;SDS011;44527;47.460;19.016;2024-01-30T14:35:42;17.62;;;9.05;;
58756;SDS011;44527;47.460;19.016;2024-01-30T14:38:45;20.12;;;8.63;;
58756;SDS011;44527;47.460;19.016;2024-01-30T14:41:48;18.58;;;8.75;;
58756;SDS011;44527;47.460;19.016;2024-01-30T14:44:51;18.17;;;8.10;;
58756;SDS011;44527;47.460;19.016;2024-01-30T14:47:53;23.75;;;8.23;;
58756;SDS011;44527;47.460;19.016;2024-01-30T14:50:58;17.15;;;8.13;;
58756;SDS011;44527;47.460;19.016;2024-01-30T14:54:02;18.90;;;10.15;;
58756;SDS011;44527;47.460;19.016;2024-01-30T14:57:05;22.00;;;9.80;;
58756;SDS011;44527;47.460;19.016;2024-01-30T15:00:08;17.58;;;8.68;;
58756;SDS011;44527;47.460;19.016;2024-01-30T15:03:11;19.35;;;8.48;;
58756;SDS011;44527;47.460;19.016;2024-01-30T15:06:14;15.43;;;8.38;;
58756;SDS011;44527;47.460;19.016;2024-01-30T15:09:16;17.00;;;8.48;;
58756;SDS011;44527;47.460;19.016;2024-01-30T15:12:19;18.70;;;8.40;;
58756;SDS011;44527;47.460;19.016;2024-01-30T15:15:21;15.68;;;8.00;;
58756;SDS011;44527;47.460;19.016;2024-01-30T15:18:26;23.00;;;8.90;;
58756;SDS011;44527;47.460;19.016;2024-01-30T15:21:28;16.50;;;8.27;;
58756;SDS011;44527;47.460;19.016;2024-01-30T15:24:31;20.60;;;9.45;;
58756;SDS011;44527;47.460;19.016;2024-01-30T15:27:33;18.58;;;9.70;;
58756;SDS011;44527;47.460;19.016;2024-01-30T15:30:36;23.33;;;9.60;;
58756;SDS011;44527;47.460;19.016;2024-01-30T15:33:38;20.92;;;10.23;;
58756;SDS011;44527;47.460;19.016;2024-01-30T15:36:41;20.85;;;9.20;;
58756;SDS011;44527;47.460;19.016;2024-01-30T15:39:44;20.05;;;9.93;;
58756;SDS011;44527;47.460;19.016;2024-01-30T15:42:47;25.25;;;10.93;;
58756;SDS011;44527;47.460;19.016;2024-01-30T15:45:49;26.73;;;11.23;;
58756;SDS011;44527;47.460;19.016;2024-01-30T15:48:53;25.35;;;11.07;;
58756;SDS011;44527;47.460;19.016;2024-01-30T15:51:55;23.62;;;10.57;;
58756;SDS011;44527;47.460;19.016;2024-01-30T15:54:58;21.45;;;10.27;;
58756;SDS011;44527;47.460;19.016;2024-01-30T15:58:01;23.92;;;10.13;;
58756;SDS011;44527;47.460;19.016;2024-01-30T16:01:03;28.38;;;11.70;;
58756;SDS011;44527;47.460;19.016;2024-01-30T16:04:06;26.52;;;11.07;;
58756;SDS011;44527;47.460;19.016;2024-01-30T16:07:09;28.58;;;12.18;;
58756;SDS011;44527;47.460;19.016;2024-01-30T16:10:11;24.20;;;12.60;;
58756;SDS011;44527;47.460;19.016;2024-01-30T16:13:18;29.92;;;13.23;;
58756;SDS011;44527;47.460;19.016;2024-01-30T16:16:21;23.70;;;12.68;;
58756;SDS011;44527;47.460;19.016;2024-01-30T16:19:23;37.95;;;13.35;;
58756;SDS011;44527;47.460;19.016;2024-01-30T16:22:26;33.03;;;12.77;;
58756;SDS011;44527;47.460;19.016;2024-01-30T16:25:28;33.95;;;12.07;;
58756;SDS011;44527;47.460;19.016;2024-01-30T16:28:31;27.90;;;12.18;;
58756;SDS011;44527;47.460;19.016;2024-01-30T16:31:35;30.92;;;13.88;;
58756;SDS011;44527;47.460;19.016;2024-01-30T16:34:38;32.65;;;13.20;;
58756;SDS011;44527;47.460;19.016;2024-01-30T16:37:41;24.25;;;12.27;;
58756;SDS011;44527;47.460;19.016;2024-01-30T16:40:44;27.58;;;11.90;;
58756;SDS011;44527;47.460;19.016;2024-01-30T16:43:47;29.30;;;13.25;;
58756;SDS011;44527;47.460;19.016;2024-01-30T16:46:49;25.80;;;12.70;;
58756;SDS011;44527;47.460;19.016;2024-01-30T16:49:53;39.72;;;13.80;;
58756;SDS011;44527;47.460;19.016;2024-01-30T16:52:57;31.60;;;14.98;;
58756;SDS011;44527;47.460;19.016;2024-01-30T16:55:59;33.35;;;14.68;;
58756;SDS011;44527;47.460;19.016;2024-01-30T16:59:03;31.15;;;15.25;;
58756;SDS011;44527;47.460;19.016;2024-01-30T17:02:06;33.50;;;17.05;;
58756;SDS011;44527;47.460;19.016;2024-01-30T17:05:08;45.55;;;17.17;;
58756;SDS011;44527;47.460;19.016;2024-01-30T17:08:27;57.17;;;21.77;;
58756;SDS011;44527;47.460;19.016;2024-01-30T17:11:29;39.85;;;17.75;;
58756;SDS011;44527;47.460;19.016;2024-01-30T17:14:32;36.60;;;15.20;;
58756;SDS011;44527;47.460;19.016;2024-01-30T17:17:37;34.83;;;14.40;;
58756;SDS011;44527;47.460;19.016;2024-01-30T17:20:39;38.10;;;15.30;;
58756;SDS011;44527;47.460;19.016;2024-01-30T17:23:42;34.45;;;13.93;;
58756;SDS011;44527;47.460;19.016;2024-01-30T17:26:44;37.00;;;16.55;;
58756;SDS011;44527;47.460;19.016;2024-01-30T17:29:47;37.53;;;15.75;;
58756;SDS011;44527;47.460;19.016;2024-01-30T17:32:50;39.22;;;16.17;;
58756;SDS011;44527;47.460;19.016;2024-01-30T17:35:53;34.65;;;15.45;;
58756;SDS011;44527;47.460;19.016;2024-01-30T17:38:55;34.80;;;17.27;;
58756;SDS011;44527;47.460;19.016;2024-01-30T17:41:58;50.53;;;16.42;;
58756;SDS011;44527;47.460;19.016;2024-01-30T17:45:01;40.85;;;16.55;;
58756;SDS011;44527;47.460;19.016;2024-01-30T17:48:04;39.72;;;16.12;;
58756;SDS011;44527;47.460;19.016;2024-01-30T17:51:07;41.60;;;17.52;;
58756;SDS011;44527;47.460;19.016;2024-01-30T17:54:10;45.88;;;17.62;;
58756;SDS011;44527;47.460;19.016;2024-01-30T17:57:12;38.83;;;18.37;;
58756;SDS011;44527;47.460;19.016;2024-01-30T18:00:15;34.60;;;15.88;;
58756;SDS011;44527;47.460;19.016;2024-01-30T18:03:21;38.47;;;17.77;;
58756;SDS011;44527;47.460;19.016;2024-01-30T18:06:23;48.22;;;17.50;;
58756;SDS011;44527;47.460;19.016;2024-01-30T18:09:26;44.47;;;17.85;;
58756;SDS011;44527;47.460;19.016;2024-01-30T18:12:29;41.83;;;17.92;;
58756;SDS011;44527;47.460;19.016;2024-01-30T18:15:32;42.25;;;17.98;;
58756;SDS011;44527;47.460;19.016;2024-01-30T18:18:34;48.90;;;20.45;;
58756;SDS011;44527;47.460;19.016;2024-01-30T18:21:37;41.95;;;18.65;;
58756;SDS011;44527;47.460;19.016;2024-01-30T18:24:40;43.72;;;20.67;;
58756;SDS011;44527;47.460;19.016;2024-01-30T18:27:44;49.13;;;21.00;;
58756;SDS011;44527;47.460;19.016;2024-01-30T18:30:48;50.22;;;21.55;;
58756;SDS011;44527;47.460;19.016;2024-01-30T18:33:51;54.20;;;23.52;;
58756;SDS011;44527;47.460;19.016;2024-01-30T18:36:56;57.00;;;21.58;;
58756;SDS011;44527;47.460;19.016;2024-01-30T18:40:03;46.47;;;21.95;;
58756;SDS011;44527;47.460;19.016;2024-01-30T18:43:06;46.30;;;22.27;;
58756;SDS011;44527;47.460;19.016;2024-01-30T18:46:09;59.90;;;23.12;;
58756;SDS011;44527;47.460;19.016;2024-01-30T18:49:12;54.72;;;22.45;;
58756;SDS011;44527;47.460;19.016;2024-01-30T18:52:15;49.42;;;22.45;;
58756;SDS011;44527;47.460;19.016;2024-01-30T18:55:17;54.40;;;21.12;;
58756;SDS011;44527;47.460;19.016;2024-01-30T18:58:20;47.97;;;23.73;;